Terminal Aerodrome Forecast
Issued by NWS

Home | Current Version | Previous Version | Text Only | Print | Product List | Glossary On
Versions: 1 2 3 4 5 6 7 8 9 10 11 12 13 14 15 16 17 18 19
000
FTUS43 KMQT 280529
TAFSAW
TAF
KSAW 280529Z 2806/2906 23008KT P6SM BKN035
      TEMPO 2806/2808 BKN025
     FM281200 23008KT P6SM BKN030
     FM281900 25008KT P6SM BKN035
     FM282200 28007KT P6SM BKN035
     FM290100 32005KT P6SM BKN060
     FM290200 31004KT P6SM SCT080=

USA.gov is the U.S. government's official web portal to all federal, state and local government web resources and services.